sensor_id;sensor_type;location;lat;lon;timestamp;P1;durP1;ratioP1;P2;durP2;ratioP2
18114;SDS011;9184;54.390;18.620;2023-12-20T00:00:26;2.50;;;2.30;;
18114;SDS011;9184;54.390;18.620;2023-12-20T00:00:56;3.30;;;1.77;;
18114;SDS011;9184;54.390;18.620;2023-12-20T00:01:27;3.67;;;2.28;;
18114;SDS011;9184;54.390;18.620;2023-12-20T00:01:58;2.75;;;1.98;;
18114;SDS011;9184;54.390;18.620;2023-12-20T00:02:29;1.98;;;1.65;;
18114;SDS011;9184;54.390;18.620;2023-12-20T00:02:59;2.78;;;2.10;;
18114;SDS011;9184;54.390;18.620;2023-12-20T00:03:30;4.80;;;2.38;;
18114;SDS011;9184;54.390;18.620;2023-12-20T00:04:01;3.78;;;2.05;;
18114;SDS011;9184;54.390;18.620;2023-12-20T00:04:32;2.10;;;1.85;;
18114;SDS011;9184;54.390;18.620;2023-12-20T00:05:02;3.40;;;2.17;;
18114;SDS011;9184;54.390;18.620;2023-12-20T00:05:33;3.42;;;1.95;;
18114;SDS011;9184;54.390;18.620;2023-12-20T00:06:05;2.78;;;2.00;;
18114;SDS011;9184;54.390;18.620;2023-12-20T00:06:36;2.65;;;1.80;;
18114;SDS011;9184;54.390;18.620;2023-12-20T00:07:06;3.13;;;1.83;;
18114;SDS011;9184;54.390;18.620;2023-12-20T00:07:37;3.40;;;2.30;;
18114;SDS011;9184;54.390;18.620;2023-12-20T00:08:07;3.05;;;1.65;;
18114;SDS011;9184;54.390;18.620;2023-12-20T00:08:39;1.98;;;1.67;;
18114;SDS011;9184;54.390;18.620;2023-12-20T00:09:09;2.25;;;1.65;;
18114;SDS011;9184;54.390;18.620;2023-12-20T00:09:40;2.63;;;1.90;;
18114;SDS011;9184;54.390;18.620;2023-12-20T00:10:10;2.50;;;1.73;;
18114;SDS011;9184;54.390;18.620;2023-12-20T00:10:43;3.20;;;2.10;;
18114;SDS011;9184;54.390;18.620;2023-12-20T00:11:14;2.90;;;2.00;;
18114;SDS011;9184;54.390;18.620;2023-12-20T00:11:44;3.03;;;1.88;;
18114;SDS011;9184;54.390;18.620;2023-12-20T00:12:16;3.53;;;1.98;;
18114;SDS011;9184;54.390;18.620;2023-12-20T00:12:47;2.55;;;1.70;;
18114;SDS011;9184;54.390;18.620;2023-12-20T00:13:17;5.90;;;2.33;;
18114;SDS011;9184;54.390;18.620;2023-12-20T00:13:48;3.50;;;1.98;;
18114;SDS011;9184;54.390;18.620;2023-12-20T00:14:19;3.28;;;2.30;;
18114;SDS011;9184;54.390;18.620;2023-12-20T00:14:50;4.07;;;1.90;;
18114;SDS011;9184;54.390;18.620;2023-12-20T00:15:20;3.47;;;2.25;;
18114;SDS011;9184;54.390;18.620;2023-12-20T00:15:52;3.17;;;1.90;;
18114;SDS011;9184;54.390;18.620;2023-12-20T00:16:24;2.78;;;1.85;;
18114;SDS011;9184;54.390;18.620;2023-12-20T00:16:54;2.10;;;1.42;;
18114;SDS011;9184;54.390;18.620;2023-12-20T00:17:25;3.47;;;1.65;;
18114;SDS011;9184;54.390;18.620;2023-12-20T00:17:55;2.03;;;1.65;;
18114;SDS011;9184;54.390;18.620;2023-12-20T00:18:27;3.22;;;2.30;;
18114;SDS011;9184;54.390;18.620;2023-12-20T00:18:57;1.77;;;1.60;;
18114;SDS011;9184;54.390;18.620;2023-12-20T00:19:27;4.45;;;1.80;;
18114;SDS011;9184;54.390;18.620;2023-12-20T00:19:58;2.45;;;1.90;;
18114;SDS011;9184;54.390;18.620;2023-12-20T00:20:30;2.78;;;1.90;;
18114;SDS011;9184;54.390;18.620;2023-12-20T00:21:00;2.80;;;2.15;;
18114;SDS011;9184;54.390;18.620;2023-12-20T00:21:31;4.07;;;1.95;;
18114;SDS011;9184;54.390;18.620;2023-12-20T00:22:01;2.67;;;1.52;;
18114;SDS011;9184;54.390;18.620;2023-12-20T00:22:32;2.03;;;1.63;;
18114;SDS011;9184;54.390;18.620;2023-12-20T00:23:03;3.40;;;1.65;;
18114;SDS011;9184;54.390;18.620;2023-12-20T00:23:33;2.25;;;1.65;;
18114;SDS011;9184;54.390;18.620;2023-12-20T00:24:04;3.95;;;1.77;;
18114;SDS011;9184;54.390;18.620;2023-12-20T00:24:35;2.70;;;1.63;;
18114;SDS011;9184;54.390;18.620;2023-12-20T00:25:06;2.90;;;2.20;;
18114;SDS011;9184;54.390;18.620;2023-12-20T00:25:37;4.55;;;1.90;;
18114;SDS011;9184;54.390;18.620;2023-12-20T00:26:08;3.10;;;1.67;;
18114;SDS011;9184;54.390;18.620;2023-12-20T00:26:38;4.28;;;2.00;;
18114;SDS011;9184;54.390;18.620;2023-12-20T00:27:08;3.90;;;1.55;;
18114;SDS011;9184;54.390;18.620;2023-12-20T00:27:40;2.17;;;1.48;;
18114;SDS011;9184;54.390;18.620;2023-12-20T00:28:10;3.50;;;1.60;;
18114;SDS011;9184;54.390;18.620;2023-12-20T00:28:41;1.40;;;1.30;;
18114;SDS011;9184;54.390;18.620;2023-12-20T00:29:12;1.92;;;1.42;;
18114;SDS011;9184;54.390;18.620;2023-12-20T00:29:44;2.53;;;1.67;;
18114;SDS011;9184;54.390;18.620;2023-12-20T00:30:18;2.30;;;1.60;;
18114;SDS011;9184;54.390;18.620;2023-12-20T00:30:48;2.53;;;1.67;;
18114;SDS011;9184;54.390;18.620;2023-12-20T00:31:20;4.40;;;1.58;;
18114;SDS011;9184;54.390;18.620;2023-12-20T00:31:53;2.92;;;1.60;;
18114;SDS011;9184;54.390;18.620;2023-12-20T00:32:23;3.90;;;1.30;;
18114;SDS011;9184;54.390;18.620;2023-12-20T00:32:53;2.10;;;1.42;;
18114;SDS011;9184;54.390;18.620;2023-12-20T00:33:27;1.92;;;1.50;;
18114;SDS011;9184;54.390;18.620;2023-12-20T00:33:58;1.88;;;1.45;;
18114;SDS011;9184;54.390;18.620;2023-12-20T00:34:28;1.88;;;1.27;;
18114;SDS011;9184;54.390;18.620;2023-12-20T00:34:59;1.92;;;1.30;;
18114;SDS011;9184;54.390;18.620;2023-12-20T00:35:30;2.20;;;1.60;;
18114;SDS011;9184;54.390;18.620;2023-12-20T00:36:01;4.10;;;1.73;;
18114;SDS011;9184;54.390;18.620;2023-12-20T00:36:31;2.63;;;1.55;;
18114;SDS011;9184;54.390;18.620;2023-12-20T00:37:02;2.28;;;1.52;;
18114;SDS011;9184;54.390;18.620;2023-12-20T00:37:33;2.50;;;1.65;;
18114;SDS011;9184;54.390;18.620;2023-12-20T00:38:06;3.15;;;1.50;;
18114;SDS011;9184;54.390;18.620;2023-12-20T00:38:38;1.77;;;1.60;;
18114;SDS011;9184;54.390;18.620;2023-12-20T00:39:10;2.40;;;1.63;;
18114;SDS011;9184;54.390;18.620;2023-12-20T00:39:40;2.28;;;1.50;;
18114;SDS011;9184;54.390;18.620;2023-12-20T00:40:11;1.52;;;1.30;;
18114;SDS011;9184;54.390;18.620;2023-12-20T00:40:41;1.42;;;1.30;;
18114;SDS011;9184;54.390;18.620;2023-12-20T00:41:13;1.45;;;1.13;;
18114;SDS011;9184;54.390;18.620;2023-12-20T00:41:43;2.22;;;1.40;;
18114;SDS011;9184;54.390;18.620;2023-12-20T00:42:14;1.20;;;1.10;;
18114;SDS011;9184;54.390;18.620;2023-12-20T00:42:44;2.47;;;1.20;;
18114;SDS011;9184;54.390;18.620;2023-12-20T00:43:17;1.65;;;1.10;;
18114;SDS011;9184;54.390;18.620;2023-12-20T00:43:48;1.20;;;1.10;;
18114;SDS011;9184;54.390;18.620;2023-12-20T00:44:19;1.35;;;1.00;;
18114;SDS011;9184;54.390;18.620;2023-12-20T00:44:49;2.25;;;1.30;;
18114;SDS011;9184;54.390;18.620;2023-12-20T00:45:20;3.13;;;1.38;;
18114;SDS011;9184;54.390;18.620;2023-12-20T00:45:52;1.38;;;1.27;;
18114;SDS011;9184;54.390;18.620;2023-12-20T00:46:24;2.95;;;1.50;;
18114;SDS011;9184;54.390;18.620;2023-12-20T00:46:54;1.65;;;1.20;;
18114;SDS011;9184;54.390;18.620;2023-12-20T00:47:25;1.35;;;1.25;;
18114;SDS011;9184;54.390;18.620;2023-12-20T00:47:56;3.78;;;1.67;;
18114;SDS011;9184;54.390;18.620;2023-12-20T00:48:27;1.98;;;1.55;;
18114;SDS011;9184;54.390;18.620;2023-12-20T00:48:57;1.20;;;1.00;;
18114;SDS011;9184;54.390;18.620;2023-12-20T00:49:28;2.28;;;1.40;;
18114;SDS011;9184;54.390;18.620;2023-12-20T00:49:59;4.03;;;1.95;;
18114;SDS011;9184;54.390;18.620;2023-12-20T00:50:29;4.20;;;2.03;;
18114;SDS011;9184;54.390;18.620;2023-12-20T00:51:00;3.72;;;2.20;;
18114;SDS011;9184;54.390;18.620;2023-12-20T00:51:31;4.40;;;1.65;;
18114;SDS011;9184;54.390;18.620;2023-12-20T00:52:02;2.83;;;1.50;;
18114;SDS011;9184;54.390;18.620;2023-12-20T00:52:32;1.70;;;1.02;;
18114;SDS011;9184;54.390;18.620;2023-12-20T00:53:03;2.53;;;1.20;;
18114;SDS011;9184;54.390;18.620;2023-12-20T00:53:33;7.93;;;1.75;;
18114;SDS011;9184;54.390;18.620;2023-12-20T00:54:05;3.20;;;2.10;;
18114;SDS011;9184;54.390;18.620;2023-12-20T00:54:37;4.67;;;1.30;;
18114;SDS011;9184;54.390;18.620;2023-12-20T00:55:08;2.60;;;1.48;;
18114;SDS011;9184;54.390;18.620;2023-12-20T00:55:38;2.88;;;1.10;;
18114;SDS011;9184;54.390;18.620;2023-12-20T00:56:10;2.05;;;1.45;;
18114;SDS011;9184;54.390;18.620;2023-12-20T00:56:41;2.10;;;1.63;;
18114;SDS011;9184;54.390;18.620;2023-12-20T00:57:11;2.90;;;1.30;;
18114;SDS011;9184;54.390;18.620;2023-12-20T00:57:42;3.10;;;1.50;;
18114;SDS011;9184;54.390;18.620;2023-12-20T00:58:12;1.45;;;1.05;;
18114;SDS011;9184;54.390;18.620;2023-12-20T00:58:45;1.65;;;1.10;;
18114;SDS011;9184;54.390;18.620;2023-12-20T00:59:16;2.83;;;1.33;;
18114;SDS011;9184;54.390;18.620;2023-12-20T00:59:46;2.65;;;1.20;;
18114;SDS011;9184;54.390;18.620;2023-12-20T01:00:17;2.30;;;1.40;;
18114;SDS011;9184;54.390;18.620;2023-12-20T01:00:48;2.15;;;1.08;;
18114;SDS011;9184;54.390;18.620;2023-12-20T01:01:19;1.13;;;0.85;;
18114;SDS011;9184;54.390;18.620;2023-12-20T01:01:51;1.80;;;0.80;;
18114;SDS011;9184;54.390;18.620;2023-12-20T01:02:22;1.00;;;0.82;;
18114;SDS011;9184;54.390;18.620;2023-12-20T01:02:52;0.70;;;0.70;;
18114;SDS011;9184;54.390;18.620;2023-12-20T01:03:23;1.52;;;1.10;;
18114;SDS011;9184;54.390;18.620;2023-12-20T01:03:53;3.20;;;0.75;;
18114;SDS011;9184;54.390;18.620;2023-12-20T01:04:25;1.25;;;1.02;;
18114;SDS011;9184;54.390;18.620;2023-12-20T01:04:56;2.33;;;0.90;;
18114;SDS011;9184;54.390;18.620;2023-12-20T01:05:26;2.28;;;0.88;;
18114;SDS011;9184;54.390;18.620;2023-12-20T01:05:57;0.73;;;0.60;;
18114;SDS011;9184;54.390;18.620;2023-12-20T01:06:28;1.47;;;0.73;;
18114;SDS011;9184;54.390;18.620;2023-12-20T01:06:59;1.65;;;0.80;;
18114;SDS011;9184;54.390;18.620;2023-12-20T01:07:29;3.43;;;0.90;;
18114;SDS011;9184;54.390;18.620;2023-12-20T01:08:00;0.77;;;0.50;;
18114;SDS011;9184;54.390;18.620;2023-12-20T01:08:30;2.63;;;0.90;;
18114;SDS011;9184;54.390;18.620;2023-12-20T01:09:02;3.03;;;1.23;;
18114;SDS011;9184;54.390;18.620;2023-12-20T01:09:32;2.17;;;1.07;;
18114;SDS011;9184;54.390;18.620;2023-12-20T01:10:04;2.30;;;0.60;;
18114;SDS011;9184;54.390;18.620;2023-12-20T01:10:34;0.97;;;0.70;;
18114;SDS011;9184;54.390;18.620;2023-12-20T01:11:05;0.80;;;0.73;;
18114;SDS011;9184;54.390;18.620;2023-12-20T01:11:36;3.10;;;0.75;;
18114;SDS011;9184;54.390;18.620;2023-12-20T01:12:06;0.60;;;0.60;;
18114;SDS011;9184;54.390;18.620;2023-12-20T01:12:37;2.03;;;0.70;;
18114;SDS011;9184;54.390;18.620;2023-12-20T01:13:08;0.63;;;0.60;;
18114;SDS011;9184;54.390;18.620;2023-12-20T01:13:39;1.60;;;0.97;;
18114;SDS011;9184;54.390;18.620;2023-12-20T01:14:09;0.77;;;0.70;;
18114;SDS011;9184;54.390;18.620;2023-12-20T01:14:40;1.27;;;0.70;;
18114;SDS011;9184;54.390;18.620;2023-12-20T01:15:11;1.03;;;0.80;;
18114;SDS011;9184;54.390;18.620;2023-12-20T01:15:41;1.23;;;0.80;;
18114;SDS011;9184;54.390;18.620;2023-12-20T01:16:12;2.92;;;1.00;;
18114;SDS011;9184;54.390;18.620;2023-12-20T01:16:42;1.77;;;0.73;;
18114;SDS011;9184;54.390;18.620;2023-12-20T01:17:15;1.63;;;0.77;;
18114;SDS011;9184;54.390;18.620;2023-12-20T01:17:46;1.63;;;0.90;;
18114;SDS011;9184;54.390;18.620;2023-12-20T01:18:17;2.47;;;0.90;;
18114;SDS011;9184;54.390;18.620;2023-12-20T01:18:47;1.33;;;0.80;;
18114;SDS011;9184;54.390;18.620;2023-12-20T01:19:19;2.13;;;0.90;;
18114;SDS011;9184;54.390;18.620;2023-12-20T01:19:49;2.80;;;1.27;;
18114;SDS011;9184;54.390;18.620;2023-12-20T01:20:20;1.00;;;0.70;;
18114;SDS011;9184;54.390;18.620;2023-12-20T01:20:50;1.30;;;0.80;;
18114;SDS011;9184;54.390;18.620;2023-12-20T01:21:21;2.53;;;1.00;;
18114;SDS011;9184;54.390;18.620;2023-12-20T01:21:52;2.87;;;0.90;;
18114;SDS011;9184;54.390;18.620;2023-12-20T01:22:23;1.50;;;0.80;;
18114;SDS011;9184;54.390;18.620;2023-12-20T01:22:53;1.17;;;0.90;;
18114;SDS011;9184;54.390;18.620;2023-12-20T01:23:25;2.40;;;1.03;;
18114;SDS011;9184;54.390;18.620;2023-12-20T01:23:55;2.43;;;0.90;;
18114;SDS011;9184;54.390;18.620;2023-12-20T01:24:26;3.93;;;0.90;;
18114;SDS011;9184;54.390;18.620;2023-12-20T01:24:56;4.23;;;0.87;;
18114;SDS011;9184;54.390;18.620;2023-12-20T01:25:28;4.03;;;1.17;;
18114;SDS011;9184;54.390;18.620;2023-12-20T01:25:58;2.10;;;0.93;;
18114;SDS011;9184;54.390;18.620;2023-12-20T01:26:29;3.40;;;1.23;;
18114;SDS011;9184;54.390;18.620;2023-12-20T01:27:01;2.70;;;1.13;;
18114;SDS011;9184;54.390;18.620;2023-12-20T01:27:32;0.88;;;0.70;;
18114;SDS011;9184;54.390;18.620;2023-12-20T01:28:03;1.70;;;0.80;;
18114;SDS011;9184;54.390;18.620;2023-12-20T01:28:33;2.43;;;1.10;;
18114;SDS011;9184;54.390;18.620;2023-12-20T01:29:05;2.90;;;1.17;;
18114;SDS011;9184;54.390;18.620;2023-12-20T01:29:35;4.97;;;1.43;;
18114;SDS011;9184;54.390;18.620;2023-12-20T01:30:06;4.00;;;0.90;;
18114;SDS011;9184;54.390;18.620;2023-12-20T01:30:37;4.63;;;1.40;;
18114;SDS011;9184;54.390;18.620;2023-12-20T01:31:08;1.80;;;1.00;;
18114;SDS011;9184;54.390;18.620;2023-12-20T01:31:39;4.03;;;1.03;;
18114;SDS011;9184;54.390;18.620;2023-12-20T01:32:09;4.10;;;0.90;;
18114;SDS011;9184;54.390;18.620;2023-12-20T01:32:41;2.30;;;1.07;;
18114;SDS011;9184;54.390;18.620;2023-12-20T01:33:11;1.63;;;0.90;;
18114;SDS011;9184;54.390;18.620;2023-12-20T01:33:43;4.90;;;2.07;;
18114;SDS011;9184;54.390;18.620;2023-12-20T01:34:13;3.63;;;1.40;;
18114;SDS011;9184;54.390;18.620;2023-12-20T01:34:44;3.87;;;1.40;;
18114;SDS011;9184;54.390;18.620;2023-12-20T01:35:14;2.97;;;1.10;;
18114;SDS011;9184;54.390;18.620;2023-12-20T01:35:46;3.43;;;1.60;;
18114;SDS011;9184;54.390;18.620;2023-12-20T01:36:16;4.90;;;1.40;;
18114;SDS011;9184;54.390;18.620;2023-12-20T01:36:46;4.20;;;1.20;;
18114;SDS011;9184;54.390;18.620;2023-12-20T01:37:17;4.83;;;1.40;;
18114;SDS011;9184;54.390;18.620;2023-12-20T01:37:48;4.97;;;0.87;;
18114;SDS011;9184;54.390;18.620;2023-12-20T01:38:19;3.03;;;1.00;;
18114;SDS011;9184;54.390;18.620;2023-12-20T01:38:50;4.07;;;1.30;;
18114;SDS011;9184;54.390;18.620;2023-12-20T01:39:20;3.13;;;1.00;;
18114;SDS011;9184;54.390;18.620;2023-12-20T01:39:52;1.27;;;1.00;;
18114;SDS011;9184;54.390;18.620;2023-12-20T01:40:22;5.77;;;1.13;;
18114;SDS011;9184;54.390;18.620;2023-12-20T01:40:53;5.20;;;1.53;;
18114;SDS011;9184;54.390;18.620;2023-12-20T01:41:23;5.97;;;1.90;;
18114;SDS011;9184;54.390;18.620;2023-12-20T01:41:55;4.07;;;1.43;;
18114;SDS011;9184;54.390;18.620;2023-12-20T01:42:25;7.03;;;1.67;;
18114;SDS011;9184;54.390;18.620;2023-12-20T01:42:59;5.20;;;1.33;;
18114;SDS011;9184;54.390;18.620;2023-12-20T01:43:29;9.07;;;1.47;;
18114;SDS011;9184;54.390;18.620;2023-12-20T01:44:01;2.63;;;1.00;;
18114;SDS011;9184;54.390;18.620;2023-12-20T01:44:31;6.23;;;1.20;;
18114;SDS011;9184;54.390;18.620;2023-12-20T01:45:02;5.63;;;1.30;;
18114;SDS011;9184;54.390;18.620;2023-12-20T01:45:33;5.73;;;1.23;;
18114;SDS011;9184;54.390;18.620;2023-12-20T01:46:03;3.37;;;1.30;;
18114;SDS011;9184;54.390;18.620;2023-12-20T01:46:35;2.43;;;1.10;;
18114;SDS011;9184;54.390;18.620;2023-12-20T01:47:06;6.33;;;1.40;;
18114;SDS011;9184;54.390;18.620;2023-12-20T01:47:36;4.10;;;1.10;;
18114;SDS011;9184;54.390;18.620;2023-12-20T01:48:08;3.77;;;1.30;;
18114;SDS011;9184;54.390;18.620;2023-12-20T01:48:39;4.37;;;1.33;;
18114;SDS011;9184;54.390;18.620;2023-12-20T01:49:10;1.47;;;0.87;;
18114;SDS011;9184;54.390;18.620;2023-12-20T01:49:41;5.10;;;1.30;;
18114;SDS011;9184;54.390;18.620;2023-12-20T01:50:11;3.43;;;1.17;;
18114;SDS011;9184;54.390;18.620;2023-12-20T01:50:44;4.87;;;1.33;;
18114;SDS011;9184;54.390;18.620;2023-12-20T01:51:16;2.77;;;0.93;;
18114;SDS011;9184;54.390;18.620;2023-12-20T01:51:46;7.60;;;1.40;;
18114;SDS011;9184;54.390;18.620;2023-12-20T01:52:18;2.83;;;0.97;;
18114;SDS011;9184;54.390;18.620;2023-12-20T01:52:48;5.07;;;1.40;;
18114;SDS011;9184;54.390;18.620;2023-12-20T01:53:22;6.13;;;1.20;;
18114;SDS011;9184;54.390;18.620;2023-12-20T01:53:55;6.17;;;1.40;;
18114;SDS011;9184;54.390;18.620;2023-12-20T01:54:27;7.20;;;1.10;;
18114;SDS011;9184;54.390;18.620;2023-12-20T01:54:57;4.10;;;1.20;;
18114;SDS011;9184;54.390;18.620;2023-12-20T01:55:33;4.60;;;1.13;;
18114;SDS011;9184;54.390;18.620;2023-12-20T01:56:07;4.13;;;1.70;;
18114;SDS011;9184;54.390;18.620;2023-12-20T01:56:39;2.20;;;0.97;;
18114;SDS011;9184;54.390;18.620;2023-12-20T01:57:10;5.90;;;1.27;;
18114;SDS011;9184;54.390;18.620;2023-12-20T01:57:40;4.90;;;1.57;;
18114;SDS011;9184;54.390;18.620;2023-12-20T01:58:12;5.50;;;1.33;;
18114;SDS011;9184;54.390;18.620;2023-12-20T01:58:44;6.87;;;1.17;;
18114;SDS011;9184;54.390;18.620;2023-12-20T01:59:14;2.77;;;1.20;;
18114;SDS011;9184;54.390;18.620;2023-12-20T01:59:49;4.53;;;1.30;;
18114;SDS011;9184;54.390;18.620;2023-12-20T02:00:20;7.20;;;1.37;;
18114;SDS011;9184;54.390;18.620;2023-12-20T02:00:53;3.57;;;1.40;;
18114;SDS011;9184;54.390;18.620;2023-12-20T02:01:25;3.70;;;1.37;;
18114;SDS011;9184;54.390;18.620;2023-12-20T02:01:56;6.67;;;1.37;;
18114;SDS011;9184;54.390;18.620;2023-12-20T02:02:26;7.43;;;1.40;;
18114;SDS011;9184;54.390;18.620;2023-12-20T02:02:58;4.57;;;1.67;;
18114;SDS011;9184;54.390;18.620;2023-12-20T02:03:34;2.23;;;1.10;;
18114;SDS011;9184;54.390;18.620;2023-12-20T02:04:06;7.10;;;1.60;;
18114;SDS011;9184;54.390;18.620;2023-12-20T02:04:37;5.10;;;1.50;;
18114;SDS011;9184;54.390;18.620;2023-12-20T02:05:11;7.97;;;1.50;;
18114;SDS011;9184;54.390;18.620;2023-12-20T02:05:41;3.93;;;1.53;;
18114;SDS011;9184;54.390;18.620;2023-12-20T02:06:13;2.97;;;1.30;;
18114;SDS011;9184;54.390;18.620;2023-12-20T02:06:49;5.87;;;1.50;;
18114;SDS011;9184;54.390;18.620;2023-12-20T02:07:22;4.67;;;1.43;;
18114;SDS011;9184;54.390;18.620;2023-12-20T02:07:52;2.37;;;1.63;;
18114;SDS011;9184;54.390;18.620;2023-12-20T02:08:24;4.03;;;1.30;;
18114;SDS011;9184;54.390;18.620;2023-12-20T02:08:54;9.67;;;1.50;;
18114;SDS011;9184;54.390;18.620;2023-12-20T02:09:28;6.83;;;1.47;;
18114;SDS011;9184;54.390;18.620;2023-12-20T02:10:00;10.60;;;1.50;;
18114;SDS011;9184;54.390;18.620;2023-12-20T02:10:33;8.17;;;1.93;;
18114;SDS011;9184;54.390;18.620;2023-12-20T02:11:07;10.27;;;1.47;;
18114;SDS011;9184;54.390;18.620;2023-12-20T02:11:37;6.57;;;1.70;;
18114;SDS011;9184;54.390;18.620;2023-12-20T02:12:09;4.97;;;1.17;;
18114;SDS011;9184;54.390;18.620;2023-12-20T02:12:39;9.00;;;1.40;;
18114;SDS011;9184;54.390;18.620;2023-12-20T02:13:10;5.07;;;1.30;;
18114;SDS011;9184;54.390;18.620;2023-12-20T02:13:41;7.17;;;1.50;;
18114;SDS011;9184;54.390;18.620;2023-12-20T02:14:12;4.73;;;1.30;;
18114;SDS011;9184;54.390;18.620;2023-12-20T02:14:43;4.67;;;1.20;;
18114;SDS011;9184;54.390;18.620;2023-12-20T02:15:14;5.17;;;1.40;;
18114;SDS011;9184;54.390;18.620;2023-12-20T02:15:45;4.53;;;1.47;;
18114;SDS011;9184;54.390;18.620;2023-12-20T02:16:15;10.83;;;2.77;;
18114;SDS011;9184;54.390;18.620;2023-12-20T02:16:47;4.83;;;1.47;;
18114;SDS011;9184;54.390;18.620;2023-12-20T02:17:17;6.70;;;1.40;;
18114;SDS011;9184;54.390;18.620;2023-12-20T02:17:48;4.30;;;1.43;;
18114;SDS011;9184;54.390;18.620;2023-12-20T02:18:19;5.70;;;1.47;;
18114;SDS011;9184;54.390;18.620;2023-12-20T02:18:51;7.17;;;1.80;;
18114;SDS011;9184;54.390;18.620;2023-12-20T02:19:22;4.40;;;1.37;;
18114;SDS011;9184;54.390;18.620;2023-12-20T02:19:53;6.47;;;1.90;;
18114;SDS011;9184;54.390;18.620;2023-12-20T02:20:23;8.47;;;1.77;;
18114;SDS011;9184;54.390;18.620;2023-12-20T02:20:54;4.37;;;1.30;;
18114;SDS011;9184;54.390;18.620;2023-12-20T02:21:33;10.17;;;1.50;;
18114;SDS011;9184;54.390;18.620;2023-12-20T02:22:07;9.43;;;1.70;;
18114;SDS011;9184;54.390;18.620;2023-12-20T02:22:38;7.87;;;1.60;;
18114;SDS011;9184;54.390;18.620;2023-12-20T02:23:08;10.87;;;1.83;;
18114;SDS011;9184;54.390;18.620;2023-12-20T02:23:40;8.80;;;1.67;;
18114;SDS011;9184;54.390;18.620;2023-12-20T02:24:10;4.03;;;1.33;;
18114;SDS011;9184;54.390;18.620;2023-12-20T02:24:41;6.37;;;1.97;;
18114;SDS011;9184;54.390;18.620;2023-12-20T02:25:11;4.43;;;1.47;;
18114;SDS011;9184;54.390;18.620;2023-12-20T02:25:42;4.33;;;1.57;;
18114;SDS011;9184;54.390;18.620;2023-12-20T02:26:13;4.27;;;1.90;;
18114;SDS011;9184;54.390;18.620;2023-12-20T02:26:44;6.63;;;1.60;;
18114;SDS011;9184;54.390;18.620;2023-12-20T02:27:14;6.07;;;1.60;;
18114;SDS011;9184;54.390;18.620;2023-12-20T02:27:46;7.97;;;2.07;;
18114;SDS011;9184;54.390;18.620;2023-12-20T02:28:17;7.00;;;1.47;;
18114;SDS011;9184;54.390;18.620;2023-12-20T02:28:48;5.97;;;1.60;;
18114;SDS011;9184;54.390;18.620;2023-12-20T02:29:19;8.93;;;2.33;;
18114;SDS011;9184;54.390;18.620;2023-12-20T02:29:50;4.97;;;1.53;;
18114;SDS011;9184;54.390;18.620;2023-12-20T02:30:20;8.97;;;2.30;;
18114;SDS011;9184;54.390;18.620;2023-12-20T02:30:51;4.87;;;1.40;;
18114;SDS011;9184;54.390;18.620;2023-12-20T02:31:23;5.00;;;1.83;;
18114;SDS011;9184;54.390;18.620;2023-12-20T02:31:53;10.27;;;2.33;;
18114;SDS011;9184;54.390;18.620;2023-12-20T02:32:24;10.70;;;1.90;;
18114;SDS011;9184;54.390;18.620;2023-12-20T02:32:56;6.00;;;1.90;;
18114;SDS011;9184;54.390;18.620;2023-12-20T02:33:27;4.97;;;1.50;;
18114;SDS011;9184;54.390;18.620;2023-12-20T02:33:58;8.13;;;2.37;;
18114;SDS011;9184;54.390;18.620;2023-12-20T02:34:28;6.40;;;2.10;;
18114;SDS011;9184;54.390;18.620;2023-12-20T02:34:59;5.77;;;1.67;;
18114;SDS011;9184;54.390;18.620;2023-12-20T02:35:29;6.90;;;1.80;;
18114;SDS011;9184;54.390;18.620;2023-12-20T02:36:01;11.70;;;2.20;;
18114;SDS011;9184;54.390;18.620;2023-12-20T02:36:32;12.10;;;1.97;;
18114;SDS011;9184;54.390;18.620;2023-12-20T02:37:03;5.87;;;2.03;;
18114;SDS011;9184;54.390;18.620;2023-12-20T02:37:33;7.70;;;1.93;;
18114;SDS011;9184;54.390;18.620;2023-12-20T02:38:05;8.63;;;2.13;;
18114;SDS011;9184;54.390;18.620;2023-12-20T02:38:35;4.50;;;1.53;;
18114;SDS011;9184;54.390;18.620;2023-12-20T02:39:06;6.47;;;2.00;;
18114;SDS011;9184;54.390;18.620;2023-12-20T02:39:36;4.67;;;1.87;;
18114;SDS011;9184;54.390;18.620;2023-12-20T02:40:08;8.10;;;2.70;;
18114;SDS011;9184;54.390;18.620;2023-12-20T02:40:38;6.23;;;2.27;;
18114;SDS011;9184;54.390;18.620;2023-12-20T02:41:09;7.27;;;2.07;;
18114;SDS011;9184;54.390;18.620;2023-12-20T02:41:40;9.27;;;1.77;;
18114;SDS011;9184;54.390;18.620;2023-12-20T02:42:11;6.47;;;2.00;;
18114;SDS011;9184;54.390;18.620;2023-12-20T02:42:41;6.83;;;2.00;;
18114;SDS011;9184;54.390;18.620;2023-12-20T02:43:12;9.57;;;1.87;;
18114;SDS011;9184;54.390;18.620;2023-12-20T02:43:43;8.13;;;2.23;;
18114;SDS011;9184;54.390;18.620;2023-12-20T02:44:14;11.07;;;2.23;;
18114;SDS011;9184;54.390;18.620;2023-12-20T02:44:44;10.47;;;2.23;;
18114;SDS011;9184;54.390;18.620;2023-12-20T02:45:15;6.87;;;1.97;;
18114;SDS011;9184;54.390;18.620;2023-12-20T02:45:46;8.00;;;2.50;;
18114;SDS011;9184;54.390;18.620;2023-12-20T02:46:17;7.90;;;2.43;;
18114;SDS011;9184;54.390;18.620;2023-12-20T02:46:47;7.93;;;1.73;;
18114;SDS011;9184;54.390;18.620;2023-12-20T02:47:18;6.13;;;2.00;;
18114;SDS011;9184;54.390;18.620;2023-12-20T02:47:49;10.03;;;2.10;;
18114;SDS011;9184;54.390;18.620;2023-12-20T02:48:20;5.63;;;1.63;;
18114;SDS011;9184;54.390;18.620;2023-12-20T02:48:50;9.03;;;1.93;;
18114;SDS011;9184;54.390;18.620;2023-12-20T02:49:21;8.27;;;2.47;;
18114;SDS011;9184;54.390;18.620;2023-12-20T02:49:52;10.93;;;2.33;;
18114;SDS011;9184;54.390;18.620;2023-12-20T02:50:23;12.90;;;2.73;;
18114;SDS011;9184;54.390;18.620;2023-12-20T02:50:53;7.97;;;2.33;;
18114;SDS011;9184;54.390;18.620;2023-12-20T02:51:24;7.33;;;2.00;;
18114;SDS011;9184;54.390;18.620;2023-12-20T02:51:57;8.77;;;2.40;;
18114;SDS011;9184;54.390;18.620;2023-12-20T02:52:28;8.33;;;2.23;;
18114;SDS011;9184;54.390;18.620;2023-12-20T02:52:59;11.03;;;2.77;;
18114;SDS011;9184;54.390;18.620;2023-12-20T02:53:29;8.10;;;1.80;;
18114;SDS011;9184;54.390;18.620;2023-12-20T02:54:00;9.13;;;2.23;;
18114;SDS011;9184;54.390;18.620;2023-12-20T02:54:34;11.73;;;2.37;;
18114;SDS011;9184;54.390;18.620;2023-12-20T02:55:04;8.87;;;1.90;;
18114;SDS011;9184;54.390;18.620;2023-12-20T02:55:35;10.63;;;2.13;;
18114;SDS011;9184;54.390;18.620;2023-12-20T02:56:06;15.13;;;3.00;;
18114;SDS011;9184;54.390;18.620;2023-12-20T02:56:37;5.60;;;2.10;;
18114;SDS011;9184;54.390;18.620;2023-12-20T02:57:07;8.73;;;2.10;;
18114;SDS011;9184;54.390;18.620;2023-12-20T02:57:38;13.60;;;2.30;;
18114;SDS011;9184;54.390;18.620;2023-12-20T02:58:11;13.80;;;2.83;;
18114;SDS011;9184;54.390;18.620;2023-12-20T02:58:42;9.80;;;2.40;;
18114;SDS011;9184;54.390;18.620;2023-12-20T02:59:12;12.13;;;2.23;;
18114;SDS011;9184;54.390;18.620;2023-12-20T02:59:43;8.53;;;2.70;;
18114;SDS011;9184;54.390;18.620;2023-12-20T03:00:14;5.47;;;2.47;;
18114;SDS011;9184;54.390;18.620;2023-12-20T03:00:45;12.37;;;2.10;;
18114;SDS011;9184;54.390;18.620;2023-12-20T03:01:15;9.80;;;2.13;;
18114;SDS011;9184;54.390;18.620;2023-12-20T03:01:46;8.27;;;1.93;;
18114;SDS011;9184;54.390;18.620;2023-12-20T03:02:17;10.27;;;2.80;;
18114;SDS011;9184;54.390;18.620;2023-12-20T03:02:48;14.37;;;2.90;;
18114;SDS011;9184;54.390;18.620;2023-12-20T03:03:18;8.53;;;1.63;;
18114;SDS011;9184;54.390;18.620;2023-12-20T03:03:50;4.90;;;1.60;;
18114;SDS011;9184;54.390;18.620;2023-12-20T03:04:20;11.80;;;2.77;;
18114;SDS011;9184;54.390;18.620;2023-12-20T03:04:51;7.97;;;2.50;;
18114;SDS011;9184;54.390;18.620;2023-12-20T03:05:21;8.70;;;2.13;;
18114;SDS011;9184;54.390;18.620;2023-12-20T03:05:53;6.97;;;2.27;;
18114;SDS011;9184;54.390;18.620;2023-12-20T03:06:26;12.37;;;2.20;;
18114;SDS011;9184;54.390;18.620;2023-12-20T03:06:57;10.83;;;2.40;;